Time;durP1;ratioP1;P1;durP2;ratioP2;P2;SDS_P1;SDS_P2;PMS_P1;PMS_P2;Temp;Humidity;BMP_temperature;BMP_pressure;BME280_temperature;BME280_humidity;BME280_pressure;Samples;Min_cycle;Max_cycle;Signal;HPM_P1;HPM_P2
2023/01/02 00:02:17;;;;;;;12.45;3.60;;;;;;;12.94;92.18;100845.50;5012520;28;20516;-76
2023/01/02 00:04:42;;;;;;;18.33;3.95;;;;;;;13.06;91.07;100846.75;5029885;28;20409;-76
2023/01/02 00:07:08;;;;;;;14.35;3.65;;;;;;;13.38;89.57;100845.78;5008381;28;20029;-76
2023/01/02 00:09:33;;;;;;;15.70;3.80;;;;;;;13.30;90.07;100847.56;5010484;28;20033;-78
2023/01/02 00:11:59;;;;;;;11.18;3.20;;;;;;;13.23;90.12;100852.69;5007665;28;20037;-77
2023/01/02 00:14:24;;;;;;;13.15;3.53;;;;;;;13.15;90.25;100844.94;5000504;28;20756;-76
2023/01/02 00:16:50;;;;;;;15.80;3.55;;;;;;;13.17;90.76;100850.78;4990631;28;20441;-77
2023/01/02 00:19:15;;;;;;;13.63;3.13;;;;;;;12.94;90.50;100846.34;5011962;28;20053;-76
2023/01/02 00:21:41;;;;;;;18.75;3.25;;;;;;;13.18;90.43;100847.97;4994628;28;20044;-76
2023/01/02 00:24:06;;;;;;;12.88;2.72;;;;;;;13.31;89.07;100839.63;5009822;28;20087;-76
2023/01/02 00:26:32;;;;;;;7.97;3.10;;;;;;;13.43;87.46;100847.88;5020383;28;20045;-76
2023/01/02 00:28:57;;;;;;;10.98;2.80;;;;;;;13.50;86.63;100847.97;5009206;28;20034;-77
2023/01/02 00:31:24;;;;;;;16.13;2.78;;;;;;;13.54;87.62;100844.03;5019423;28;20033;-76
2023/01/02 00:33:49;;;;;;;15.65;3.85;;;;;;;13.60;87.12;100840.75;5010271;28;20689;-76
2023/01/02 00:36:15;;;;;;;13.93;3.22;;;;;;;13.64;87.00;100834.19;4998135;28;20074;-76
2023/01/02 00:38:42;;;;;;;13.10;3.05;;;;;;;13.59;87.63;100839.91;5013013;28;20045;-76
2023/01/02 00:41:08;;;;;;;10.30;2.72;;;;;;;13.63;87.63;100845.59;5008344;28;20041;-75
2023/01/02 00:43:33;;;;;;;12.75;2.75;;;;;;;13.75;87.04;100844.22;5023300;28;20030;-76
2023/01/02 00:45:58;;;;;;;18.20;3.28;;;;;;;13.90;86.41;100826.00;5023057;28;20505;-75
2023/01/02 00:48:24;;;;;;;11.57;2.97;;;;;;;13.90;86.40;100835.59;5008267;28;20116;-76
2023/01/02 00:50:49;;;;;;;15.80;3.17;;;;;;;13.89;86.73;100826.97;5004200;28;20037;-76
2023/01/02 00:53:15;;;;;;;8.88;3.00;;;;;;;14.05;87.01;100833.81;5010702;28;20033;-76
2023/01/02 00:55:43;;;;;;;10.10;2.83;;;;;;;14.12;86.80;100839.94;5007356;28;20037;-75
2023/01/02 00:58:09;;;;;;;11.45;2.63;;;;;;;14.16;87.12;100845.63;5027071;28;20502;-75
2023/01/02 01:00:34;;;;;;;16.67;3.45;;;;;;;14.00;89.28;100849.22;5010403;28;20072;-74
2023/01/02 01:03:00;;;;;;;9.30;2.50;;;;;;;13.61;91.85;100837.16;5026269;28;20033;-75
2023/01/02 01:05:27;;;;;;;15.60;2.58;;;;;;;13.51;93.10;100840.00;5009477;28;20087;-75
2023/01/02 01:07:55;;;;;;;9.68;2.92;;;;;;;13.56;94.29;100831.63;5029369;28;20148;-76
2023/01/02 01:10:21;;;;;;;11.13;2.70;;;;;;;13.42;94.81;100833.22;5023676;28;20558;-76
2023/01/02 01:12:47;;;;;;;11.32;2.60;;;;;;;13.51;95.29;100823.56;5025389;28;20398;-75
2023/01/02 01:15:13;;;;;;;12.77;2.90;;;;;;;13.42;95.67;100834.03;5011956;28;20064;-75
2023/01/02 01:17:38;;;;;;;6.82;2.60;;;;;;;13.36;96.13;100824.31;4996271;28;20033;-74
2023/01/02 01:20:05;;;;;;;17.42;3.00;;;;;;;13.33;96.37;100823.84;5015491;28;20052;-77
2023/01/02 01:22:30;;;;;;;13.27;2.67;;;;;;;13.19;97.52;100823.56;5029573;28;20053;-76
2023/01/02 01:24:56;;;;;;;10.73;2.80;;;;;;;13.18;97.22;100813.31;5012461;28;20037;-76
2023/01/02 01:27:21;;;;;;;12.85;3.13;;;;;;;13.08;98.23;100812.75;5024639;28;20116;-75
2023/01/02 01:29:47;;;;;;;12.57;3.33;;;;;;;13.14;98.02;100812.06;5004864;28;20041;-75
2023/01/02 01:32:12;;;;;;;16.10;3.00;;;;;;;13.17;97.61;100812.53;4994933;28;22995;-77
2023/01/02 01:34:38;;;;;;;10.77;3.25;;;;;;;13.33;97.38;100806.41;5012443;28;20041;-74
2023/01/02 01:37:03;;;;;;;17.85;2.85;;;;;;;13.10;97.92;100802.97;5010190;28;20091;-75
2023/01/02 01:39:29;;;;;;;12.18;3.10;;;;;;;13.07;98.25;100811.13;5009352;28;20037;-75
2023/01/02 01:41:54;;;;;;;14.30;2.90;;;;;;;13.18;97.86;100816.72;5010059;28;20079;-75
2023/01/02 01:44:43;;;;;;;16.20;3.13;;;;;;;13.18;97.38;100813.31;5014872;28;20068;-74
2023/01/02 01:47:41;;;;;;;13.20;3.17;;;;;;;13.24;97.12;100823.88;5009597;28;20076;-76
2023/01/02 01:50:11;;;;;;;10.25;2.97;;;;;;;13.39;95.77;100826.56;5006059;28;20037;-74
2023/01/02 01:52:43;;;;;;;15.48;3.05;;;;;;;13.42;95.45;100818.41;5014819;28;20037;-75
2023/01/02 01:55:17;;;;;;;8.00;2.50;;;;;;;13.50;94.06;100817.53;5003857;28;20481;-75
2023/01/02 01:57:47;;;;;;;16.70;2.95;;;;;;;13.40;94.13;100822.97;5026305;28;20037;-76
2023/01/02 02:00:13;;;;;;;10.45;3.38;;;;;;;13.47;93.72;100817.06;5025930;28;20553;-77
2023/01/02 02:02:43;;;;;;;13.40;2.97;;;;;;;13.60;92.50;100822.53;5008097;28;20029;-74
2023/01/02 02:05:11;;;;;;;15.75;2.47;;;;;;;13.59;92.09;100834.72;5021971;28;20033;-75
2023/01/02 02:07:43;;;;;;;9.77;3.13;;;;;;;13.90;90.32;100833.81;4996843;28;20033;-75
2023/01/02 02:10:10;;;;;;;10.20;3.00;;;;;;;13.92;89.51;100838.84;5013249;28;20048;-75
2023/01/02 02:12:35;;;;;;;13.68;2.55;;;;;;;13.75;90.18;100841.59;5029508;28;20398;-75
2023/01/02 02:15:01;;;;;;;13.52;2.80;;;;;;;13.71;90.93;100834.28;5027627;28;20029;-75
2023/01/02 02:18:08;;;;;;;13.90;3.35;;;;;;;13.55;91.67;100836.06;5012367;28;20041;-75
2023/01/02 02:20:42;;;;;;;14.48;3.20;;;;;;;13.61;91.53;100848.38;5010351;28;20208;-75
2023/01/02 02:23:29;;;;;;;14.05;2.40;;;;;;;13.68;91.41;100847.69;5014185;28;20044;-75
2023/01/02 02:26:22;;;;;;;10.60;2.53;;;;;;;13.76;91.20;100853.63;5023100;28;20189;-75
2023/01/02 02:28:47;;;;;;;;;;;;;;;13.96;90.94;100847.94;5028824;28;20504;-75
2023/01/02 02:31:38;;;;;;;7.80;2.57;;;;;;;14.02;90.06;100836.81;5007496;28;19921;-74
2023/01/02 02:34:22;;;;;;;12.70;2.90;;;;;;;13.45;92.45;100825.06;5022255;28;20483;-75
2023/01/02 02:37:05;;;;;;;9.48;2.70;;;;;;;13.45;93.62;100812.03;5011146;28;20144;-74
2023/01/02 02:39:53;;;;;;;11.30;2.72;;;;;;;13.36;94.12;100806.06;5006068;28;20037;-75
2023/01/02 02:42:39;;;;;;;12.32;3.10;;;;;;;13.08;95.45;100817.94;5023661;28;20095;-75
2023/01/02 02:45:08;;;;;;;13.75;2.80;;;;;;;13.03;96.33;100824.50;5020073;28;20087;-75
2023/01/02 02:47:39;;;;;;;11.68;2.88;;;;;;;12.86;97.83;100815.13;5010449;28;20045;-75
2023/01/02 02:50:13;;;;;;;14.27;2.85;;;;;;;12.97;97.34;100804.34;5028771;28;20041;-75
2023/01/02 02:52:55;;;;;;;15.27;2.90;;;;;;;13.15;96.54;100818.91;5025584;28;20060;-74
2023/01/02 02:55:27;;;;;;;8.18;3.10;;;;;;;13.17;96.60;100822.13;5006224;28;20077;-75
2023/01/02 02:57:53;;;;;;;8.23;3.33;;;;;;;13.09;97.21;100841.22;4993387;28;20624;-75
2023/01/02 03:00:21;;;;;;;14.60;3.42;;;;;;;12.92;97.97;100832.69;5009792;28;20068;-75
2023/01/02 03:02:47;;;;;;;11.93;2.78;;;;;;;12.70;99.48;100836.84;5027609;28;20509;-76
2023/01/02 03:05:27;;;;;;;9.15;2.88;;;;;;;12.64;100.00;100838.31;5010919;28;20041;-74
2023/01/02 03:08:00;;;;;;;18.27;3.15;;;;;;;12.72;100.00;100849.69;5029364;28;20379;-74
2023/01/02 03:10:38;;;;;;;9.32;2.70;;;;;;;12.74;100.00;100847.72;5022621;28;20038;-75
2023/01/02 03:13:11;;;;;;;13.35;2.97;;;;;;;12.63;100.00;100834.09;5024585;28;20033;-75
2023/01/02 03:15:45;;;;;;;12.88;3.00;;;;;;;12.68;100.00;100840.56;5021294;28;20045;-74
2023/01/02 03:18:37;;;;;;;6.15;2.33;;;;;;;12.62;100.00;100840.28;5024156;28;20172;-75
2023/01/02 03:21:10;;;;;;;9.82;2.83;;;;;;;12.62;100.00;100831.66;5021880;28;20068;-74
2023/01/02 03:23:45;;;;;;;14.68;3.05;;;;;;;12.81;100.00;100830.47;5020836;28;20573;-74
2023/01/02 03:26:25;;;;;;;10.88;3.13;;;;;;;12.77;100.00;100832.59;5025603;28;20504;-74
2023/01/02 03:28:57;;;;;;;10.25;2.97;;;;;;;12.75;100.00;100836.31;5023695;28;20025;-75
2023/01/02 03:31:26;;;;;;;15.90;3.73;;;;;;;12.78;100.00;100839.41;5008309;28;20138;-74
2023/01/02 03:33:59;;;;;;;9.90;2.60;;;;;;;12.71;100.00;100832.44;5000524;28;20060;-74
2023/01/02 03:36:28;;;;;;;12.90;3.13;;;;;;;12.67;100.00;100850.19;5020162;28;20070;-75
2023/01/02 03:39:04;;;;;;;10.38;2.88;;;;;;;12.56;100.00;100840.13;5008762;28;20099;-74
2023/01/02 03:41:36;;;;;;;15.63;3.20;;;;;;;12.44;100.00;100839.69;5009449;28;20055;-75
2023/01/02 03:44:06;;;;;;;12.18;3.28;;;;;;;12.55;100.00;100841.13;5009262;28;20175;-74
2023/01/02 03:46:49;;;;;;;7.10;2.65;;;;;;;12.48;100.00;100848.78;5007700;28;20045;-75
2023/01/02 03:49:23;;;;;;;12.13;3.88;;;;;;;12.45;100.00;100854.28;5003057;28;20029;-75
2023/01/02 03:51:49;;;;;;;12.38;3.15;;;;;;;12.50;100.00;100853.81;5024223;28;20041;-74
2023/01/02 03:54:16;;;;;;;14.70;4.22;;;;;;;12.50;100.00;100836.41;5007011;28;20043;-75
2023/01/02 03:56:47;;;;;;;23.02;4.00;;;;;;;12.52;100.00;100844.84;5017661;28;20498;-75
2023/01/02 03:59:37;;;;;;;23.20;3.40;;;;;;;12.58;100.00;100844.22;5024941;28;20042;-74
2023/01/02 04:02:15;;;;;;;17.52;3.50;;;;;;;12.48;100.00;100848.78;5022597;28;20045;-75
2023/01/02 04:04:51;;;;;;;10.40;3.10;;;;;;;12.49;100.00;100850.41;5030382;28;20064;-75
2023/01/02 04:07:29;;;;;;;17.20;3.90;;;;;;;12.57;100.00;100854.78;5009912;28;20048;-74
2023/01/02 04:09:56;;;;;;;12.52;3.05;;;;;;;12.55;100.00;100849.72;5008497;28;20045;-75
2023/01/02 04:12:24;;;;;;;17.40;3.40;;;;;;;12.45;100.00;100862.94;5007568;28;20045;-74
2023/01/02 04:14:56;;;;;;;17.65;3.53;;;;;;;12.48;100.00;100866.19;4998051;28;20770;-75
2023/01/02 04:17:24;;;;;;;16.52;3.97;;;;;;;12.46;100.00;100867.13;5007745;28;20172;-74
2023/01/02 04:19:55;;;;;;;13.93;3.80;;;;;;;12.47;100.00;100862.78;5025567;28;20098;-74
2023/01/02 04:22:28;;;;;;;11.48;3.63;;;;;;;12.49;100.00;100857.38;5028109;28;20037;-75
2023/01/02 04:25:14;;;;;;;9.43;3.35;;;;;;;12.49;100.00;100859.97;5018563;28;20120;-74
2023/01/02 04:28:08;;;;;;;13.63;3.70;;;;;;;12.43;100.00;100856.25;5024085;28;20449;-75
2023/01/02 04:30:35;;;;;;;;;;;;;;;12.46;100.00;100859.34;5023198;28;20673;-75
2023/01/02 04:33:08;;;;;;;15.82;3.20;;;;;;;12.51;100.00;100860.63;5026170;28;19913;-75
2023/01/02 04:35:34;;;;;;;13.35;3.00;;;;;;;12.43;100.00;100848.44;5003480;28;20042;-74
2023/01/02 04:38:11;;;;;;;13.05;3.00;;;;;;;12.38;100.00;100859.38;5028583;28;20103;-74
2023/01/02 04:40:37;;;;;;;8.93;2.72;;;;;;;12.41;100.00;100855.63;5009425;28;20117;-74
2023/01/02 04:43:20;;;;;;;17.65;3.45;;;;;;;12.29;100.00;100862.16;4993583;28;20029;-75
2023/01/02 04:45:47;;;;;;;14.38;3.22;;;;;;;12.25;100.00;100846.88;5022309;28;20116;-74
2023/01/02 04:48:13;;;;;;;12.05;3.58;;;;;;;12.26;100.00;100858.09;5025177;28;20403;-74
2023/01/02 04:50:39;;;;;;;14.10;3.17;;;;;;;12.33;100.00;100855.66;5006956;28;20037;-75
2023/01/02 04:53:04;;;;;;;7.18;2.97;;;;;;;12.29;100.00;100862.97;5014101;28;20033;-75
2023/01/02 04:55:29;;;;;;;12.77;3.13;;;;;;;12.38;100.00;100864.56;5017250;28;20453;-76
2023/01/02 04:57:57;;;;;;;11.70;2.78;;;;;;;12.34;100.00;100867.66;5026470;28;20034;-75
2023/01/02 05:00:22;;;;;;;10.30;3.20;;;;;;;12.48;100.00;100879.19;5012149;28;20096;-74
2023/01/02 05:02:48;;;;;;;13.98;2.97;;;;;;;12.41;100.00;100879.84;5011723;28;20025;-74
2023/01/02 05:05:14;;;;;;;5.35;1.98;;;;;;;12.32;100.00;100880.84;5007259;28;20552;-75
2023/01/02 05:07:40;;;;;;;12.57;2.92;;;;;;;12.46;100.00;100882.75;5023061;28;20053;-75
2023/01/02 05:10:06;;;;;;;12.35;2.67;;;;;;;12.57;98.47;100891.19;5004190;28;20099;-75
2023/01/02 05:12:33;;;;;;;11.93;3.05;;;;;;;12.61;98.52;100892.47;5025097;28;20025;-76
2023/01/02 05:14:59;;;;;;;10.95;3.33;;;;;;;12.50;99.03;100888.44;5005668;28;20041;-75
2023/01/02 05:17:24;;;;;;;7.90;2.40;;;;;;;12.54;98.67;100894.91;5008699;28;20040;-75
2023/01/02 05:19:50;;;;;;;14.38;2.55;;;;;;;12.59;98.61;100897.84;5008909;28;20037;-75
2023/01/02 05:25:13;;;;;;;11.38;2.63;;;;;;;12.84;96.46;100889.94;4988581;28;20041;-75
2023/01/02 05:27:39;;;;;;;6.88;2.20;;;;;;;12.84;96.00;100895.97;5007168;28;20036;-74
2023/01/02 05:30:06;;;;;;;10.00;3.38;;;;;;;12.93;95.41;100903.75;5004236;28;20052;-74
2023/01/02 05:32:31;;;;;;;10.05;2.80;;;;;;;12.90;95.81;100904.09;5012110;28;20056;-75
2023/01/02 05:34:57;;;;;;;10.75;2.60;;;;;;;12.85;96.69;100907.19;5017840;28;20033;-74
2023/01/02 05:37:22;;;;;;;12.73;3.00;;;;;;;12.77;97.21;100918.44;5005926;28;20048;-75
2023/01/02 05:39:48;;;;;;;13.82;3.00;;;;;;;12.76;97.21;100916.81;4988376;28;20068;-76
2023/01/02 05:42:13;;;;;;;9.30;3.33;;;;;;;12.83;96.60;100920.38;5009770;28;20612;-74
2023/01/02 05:44:38;;;;;;;10.20;3.17;;;;;;;12.75;97.62;100915.22;5028958;28;20268;-75
2023/01/02 05:47:04;;;;;;;6.72;2.47;;;;;;;12.72;97.30;100914.72;5025580;28;20033;-74
2023/01/02 05:49:29;;;;;;;19.13;3.92;;;;;;;12.74;97.44;100912.78;5025495;28;20025;-75
2023/01/02 05:51:55;;;;;;;8.23;2.47;;;;;;;12.87;96.59;100914.84;5008994;28;20036;-75
2023/01/02 05:54:20;;;;;;;7.97;3.83;;;;;;;12.69;97.17;100917.66;5005751;28;20034;-75
2023/01/02 05:56:46;;;;;;;9.85;2.97;;;;;;;12.69;97.66;100915.06;5020303;28;20398;-74
2023/01/02 05:59:15;;;;;;;11.88;3.03;;;;;;;12.65;98.28;100922.38;5023177;28;20110;-74
2023/01/02 06:01:40;;;;;;;9.18;2.92;;;;;;;12.57;98.57;100928.41;5025066;28;20410;-74
2023/01/02 06:04:06;;;;;;;8.00;3.05;;;;;;;12.56;98.50;100926.78;5023921;28;20033;-75
2023/01/02 06:06:37;;;;;;;5.75;2.00;;;;;;;12.20;99.84;100927.13;5022883;28;20042;-75
2023/01/02 06:09:03;;;;;;;8.95;2.20;;;;;;;12.12;100.00;100936.75;5005227;28;20030;-74
2023/01/02 06:11:30;;;;;;;15.13;2.60;;;;;;;12.19;100.00;100929.94;4995691;28;20064;-75
2023/01/02 06:13:56;;;;;;;13.15;2.50;;;;;;;12.12;100.00;100927.16;5010315;28;20029;-75
2023/01/02 06:16:23;;;;;;;4.10;2.28;;;;;;;12.08;100.00;100928.47;5014004;28;20476;-75
2023/01/02 06:18:49;;;;;;;6.63;2.28;;;;;;;12.01;100.00;100924.88;5011395;28;20045;-74
2023/01/02 06:21:16;;;;;;;12.15;3.67;;;;;;;12.13;100.00;100927.97;5031362;28;20049;-75
2023/01/02 06:23:42;;;;;;;9.93;2.83;;;;;;;12.15;100.00;100926.84;5001028;28;20117;-75
2023/01/02 06:26:10;;;;;;;10.73;2.92;;;;;;;12.30;100.00;100931.38;5030509;28;20120;-75
2023/01/02 06:28:35;;;;;;;9.00;2.80;;;;;;;12.16;100.00;100938.03;5015342;28;20032;-74
2023/01/02 06:31:03;;;;;;;11.18;2.67;;;;;;;12.31;100.00;100940.81;5029723;28;20037;-75
2023/01/02 06:33:29;;;;;;;9.98;2.63;;;;;;;12.06;100.00;100943.41;5027857;28;20025;-75
2023/01/02 06:35:59;;;;;;;8.57;3.40;;;;;;;12.00;100.00;100947.47;5010252;28;20831;-74
2023/01/02 06:38:26;;;;;;;10.20;2.58;;;;;;;12.13;100.00;100956.56;5026042;28;20049;-74
2023/01/02 06:40:53;;;;;;;10.10;2.20;;;;;;;12.16;100.00;100958.84;5001661;28;20453;-74
2023/01/02 06:43:19;;;;;;;7.05;2.10;;;;;;;12.20;100.00;100954.94;5029003;28;20398;-75
2023/01/02 06:45:45;;;;;;;6.43;1.92;;;;;;;12.21;100.00;100962.56;5010174;28;20045;-74
2023/01/02 06:48:10;;;;;;;8.98;2.30;;;;;;;12.13;100.00;100964.34;5008835;28;20026;-74
2023/01/02 06:50:35;;;;;;;6.50;2.35;;;;;;;12.14;100.00;100960.78;5005918;28;20037;-75
2023/01/02 06:53:01;;;;;;;7.15;2.35;;;;;;;12.21;100.00;100972.16;5031381;28;20090;-75
2023/01/02 06:55:26;;;;;;;10.38;2.10;;;;;;;12.16;100.00;100970.03;5030083;28;20037;-74
2023/01/02 06:57:52;;;;;;;9.82;2.33;;;;;;;12.02;100.00;100966.31;5017075;28;20034;-75
2023/01/02 07:00:17;;;;;;;9.05;2.35;;;;;;;11.94;100.00;100970.66;5006355;28;20053;-75
2023/01/02 07:02:43;;;;;;;7.10;2.28;;;;;;;12.00;100.00;100972.66;5026519;28;20073;-74
2023/01/02 07:05:09;;;;;;;9.48;2.65;;;;;;;11.98;100.00;100978.00;5008337;28;20033;-74
2023/01/02 07:07:36;;;;;;;10.55;2.58;;;;;;;11.91;100.00;100986.59;5025428;28;20037;-74
2023/01/02 07:10:02;;;;;;;5.90;2.35;;;;;;;11.89;100.00;100989.31;5028180;28;20525;-74
2023/01/02 07:12:27;;;;;;;9.27;2.35;;;;;;;11.66;100.00;100986.53;5025863;28;20104;-74
2023/01/02 07:14:53;;;;;;;9.85;3.10;;;;;;;11.81;100.00;100997.91;5027047;28;20645;-75
2023/01/02 07:17:18;;;;;;;6.68;2.05;;;;;;;11.52;100.00;101005.28;5028257;28;20044;-75
2023/01/02 07:19:44;;;;;;;8.98;2.42;;;;;;;11.72;100.00;101004.06;5017878;28;20092;-74
2023/01/02 07:22:09;;;;;;;4.85;2.33;;;;;;;12.05;100.00;101006.75;5011410;28;20502;-74
2023/01/02 07:24:34;;;;;;;7.30;2.25;;;;;;;11.82;100.00;101009.13;4994036;28;20405;-74
2023/01/02 07:27:00;;;;;;;8.07;3.03;;;;;;;11.83;100.00;101013.34;5008165;28;20033;-74
2023/01/02 07:29:25;;;;;;;9.90;2.25;;;;;;;11.84;100.00;101020.97;5025139;28;20025;-75
2023/01/02 07:31:52;;;;;;;7.50;2.10;;;;;;;11.65;100.00;101022.03;5010528;28;20029;-75
2023/01/02 07:34:17;;;;;;;8.57;2.00;;;;;;;11.61;100.00;101028.53;5014583;28;20044;-75
2023/01/02 07:36:43;;;;;;;10.82;2.28;;;;;;;11.83;100.00;101021.94;5030440;28;20033;-74
2023/01/02 07:39:08;;;;;;;11.05;2.17;;;;;;;11.64;100.00;101037.78;5024824;28;20025;-75
2023/01/02 07:41:34;;;;;;;7.72;3.10;;;;;;;11.64;100.00;101035.19;5002142;28;20041;-74
2023/01/02 07:44:10;;;;;;;9.10;2.10;;;;;;;11.54;100.00;101050.91;5008463;28;20030;-76
2023/01/02 07:46:36;;;;;;;9.23;3.58;;;;;;;11.64;100.00;101040.38;5021099;28;20038;-75
2023/01/02 07:49:01;;;;;;;8.60;2.40;;;;;;;11.49;100.00;101043.59;5006573;28;20036;-74
2023/01/02 07:51:27;;;;;;;8.65;1.98;;;;;;;11.27;100.00;101054.50;5002988;28;20517;-74
2023/01/02 07:53:54;;;;;;;6.47;2.53;;;;;;;11.38;100.00;101061.22;5025754;28;20033;-74
2023/01/02 07:56:20;;;;;;;8.32;2.38;;;;;;;11.46;100.00;101069.06;5025630;28;20033;-75
2023/01/02 07:58:45;;;;;;;13.88;3.80;;;;;;;11.15;100.00;101079.09;5013542;28;20037;-74
2023/01/02 08:01:11;;;;;;;8.13;1.90;;;;;;;11.27;100.00;101076.09;5020864;28;20038;-75
2023/01/02 08:03:38;;;;;;;13.38;2.63;;;;;;;11.32;100.00;101078.25;5023500;28;20029;-74
2023/01/02 08:06:15;;;;;;;11.50;2.40;;;;;;;11.54;100.00;101084.66;5009403;28;20066;-74
2023/01/02 08:08:40;;;;;;;7.57;2.05;;;;;;;11.47;100.00;101081.88;5014554;28;20033;-74
2023/01/02 08:11:15;;;;;;;4.30;1.98;;;;;;;11.34;100.00;101097.06;5009630;28;20107;-74
2023/01/02 08:13:41;;;;;;;4.88;1.83;;;;;;;11.43;100.00;101108.31;5025648;28;20418;-75
2023/01/02 08:16:15;;;;;;;9.50;2.65;;;;;;;11.55;100.00;101107.06;5010465;28;20038;-74
2023/01/02 08:18:40;;;;;;;9.25;2.30;;;;;;;11.17;100.00;101111.72;5006804;28;20721;-74
2023/01/02 08:21:08;;;;;;;6.57;2.30;;;;;;;11.13;100.00;101130.34;5029184;28;20034;-75
2023/01/02 08:23:34;;;;;;;7.32;1.90;;;;;;;11.07;100.00;101139.53;5008916;28;20673;-74
2023/01/02 08:26:06;;;;;;;7.15;2.35;;;;;;;11.20;100.00;101191.06;5007559;28;20430;-74
2023/01/02 08:28:32;;;;;;;8.15;1.20;;;;;;;10.80;100.00;101193.16;4992381;28;20402;-74
2023/01/02 08:30:59;;;;;;;3.85;0.63;;;;;;;10.48;100.00;101202.22;5006200;28;20035;-74
2023/01/02 08:33:24;;;;;;;1.00;0.75;;;;;;;10.37;100.00;101196.44;5005318;28;20048;-73
2023/01/02 08:35:50;;;;;;;1.23;0.55;;;;;;;10.21;100.00;101197.03;5022626;28;20030;-75
2023/01/02 08:38:16;;;;;;;1.58;0.47;;;;;;;10.12;100.00;101212.47;5010949;28;20500;-74
2023/01/02 08:40:41;;;;;;;1.52;0.70;;;;;;;10.06;100.00;101217.44;5022602;28;20033;-74
2023/01/02 08:43:07;;;;;;;0.40;0.40;;;;;;;10.19;100.00;101224.84;5027621;28;20537;-74
2023/01/02 08:45:33;;;;;;;1.25;0.70;;;;;;;10.15;100.00;101234.69;5006425;28;20045;-75
2023/01/02 08:47:58;;;;;;;1.95;0.80;;;;;;;10.26;100.00;101237.09;5004859;28;20033;-74
2023/01/02 08:50:24;;;;;;;2.08;0.90;;;;;;;10.29;100.00;101234.22;5001832;28;20041;-75
2023/01/02 08:52:49;;;;;;;1.98;0.75;;;;;;;10.12;100.00;101232.41;5007831;28;20469;-73
2023/01/02 08:55:15;;;;;;;1.30;0.90;;;;;;;10.01;100.00;101241.16;5008530;28;20033;-74
2023/01/02 08:57:40;;;;;;;2.83;1.10;;;;;;;10.18;100.00;101238.78;5025344;28;20065;-75
2023/01/02 09:00:07;;;;;;;1.88;1.10;;;;;;;10.28;100.00;101239.56;5031987;28;20111;-74
2023/01/02 09:02:32;;;;;;;2.47;1.58;;;;;;;10.29;100.00;101243.78;5011512;28;20750;-74
2023/01/02 09:04:57;;;;;;;2.40;1.60;;;;;;;10.16;100.00;101245.88;5010500;28;20040;-74
2023/01/02 09:07:23;;;;;;;2.33;1.95;;;;;;;10.47;100.00;101257.66;5010283;28;20394;-74
2023/01/02 09:09:49;;;;;;;2.08;1.88;;;;;;;10.12;100.00;101266.91;4993010;28;20134;-75
2023/01/02 09:12:14;;;;;;;3.35;2.30;;;;;;;9.92;100.00;101273.88;5024403;28;20033;-74
2023/01/02 09:14:40;;;;;;;2.88;2.40;;;;;;;9.93;100.00;101280.72;5010206;28;20041;-75
2023/01/02 09:17:05;;;;;;;3.28;2.45;;;;;;;9.93;100.00;101277.31;5009940;28;20026;-75
2023/01/02 09:19:31;;;;;;;7.25;2.80;;;;;;;9.94;100.00;101284.97;5004920;28;20557;-75
2023/01/02 09:21:56;;;;;;;4.75;3.72;;;;;;;9.98;100.00;101287.25;5010160;28;20025;-74
2023/01/02 09:24:22;;;;;;;6.53;3.30;;;;;;;9.95;100.00;101285.78;5024462;28;20038;-75
2023/01/02 09:26:47;;;;;;;5.35;3.25;;;;;;;10.04;100.00;101278.91;4993364;28;20053;-74
2023/01/02 09:29:13;;;;;;;4.95;3.63;;;;;;;9.91;100.00;101303.38;5025298;28;20029;-74
2023/01/02 09:31:39;;;;;;;5.93;3.53;;;;;;;9.86;100.00;101304.72;5023438;28;20045;-75
2023/01/02 09:34:05;;;;;;;7.38;4.10;;;;;;;10.10;100.00;101309.47;5006263;28;20500;-75
2023/01/02 09:36:31;;;;;;;5.18;4.20;;;;;;;10.18;100.00;101312.16;5022371;28;20038;-74
2023/01/02 09:38:58;;;;;;;5.80;4.15;;;;;;;9.91;100.00;101305.94;4994245;28;20030;-75
2023/01/02 09:41:30;;;;;;;5.47;3.83;;;;;;;10.06;100.00;101310.72;5026917;28;20068;-75
2023/01/02 09:44:04;;;;;;;4.68;3.80;;;;;;;9.95;100.00;101324.63;5023110;28;20107;-74
2023/01/02 09:46:37;;;;;;;5.68;3.85;;;;;;;9.90;100.00;101330.22;5028848;28;20041;-74
2023/01/02 09:49:03;;;;;;;4.55;3.70;;;;;;;9.89;100.00;101343.31;5026492;28;20029;-75
2023/01/02 09:51:32;;;;;;;8.57;4.32;;;;;;;9.94;100.00;101346.28;5027437;28;20128;-75
2023/01/02 09:53:58;;;;;;;6.82;4.97;;;;;;;9.97;100.00;101353.00;5024849;28;20041;-74
2023/01/02 09:56:29;;;;;;;6.35;4.38;;;;;;;9.78;100.00;101354.63;5024445;28;20037;-74
2023/01/02 09:59:16;;;;;;;9.90;5.55;;;;;;;9.91;100.00;101349.19;5029634;28;20315;-74
2023/01/02 10:01:58;;;;;;;6.43;4.55;;;;;;;9.81;100.00;101376.84;5026892;28;20140;-75
2023/01/02 10:04:47;;;;;;;7.32;4.63;;;;;;;9.85;100.00;101381.63;5023559;28;20041;-74
2023/01/02 10:07:28;;;;;;;6.35;4.40;;;;;;;9.74;100.00;101377.41;5030122;28;20033;-74
2023/01/02 10:10:02;;;;;;;7.07;4.50;;;;;;;9.84;100.00;101376.59;5026906;28;20040;-74
2023/01/02 10:12:59;;;;;;;4.65;3.67;;;;;;;9.77;100.00;101378.88;5027176;28;20045;-74
2023/01/02 10:15:30;;;;;;;6.80;3.78;;;;;;;9.84;100.00;101381.75;5028796;28;20489;-74
2023/01/02 10:18:04;;;;;;;6.15;4.28;;;;;;;9.88;100.00;101390.91;5030786;28;20156;-74
2023/01/02 10:20:37;;;;;;;7.80;3.83;;;;;;;9.87;100.00;101379.72;5027028;28;20097;-74
2023/01/02 10:23:08;;;;;;;6.78;4.43;;;;;;;9.96;100.00;101372.06;5005512;28;20025;-74
2023/01/02 10:25:41;;;;;;;7.07;4.20;;;;;;;9.98;100.00;101373.56;5025846;28;20037;-74
2023/01/02 10:28:27;;;;;;;6.38;4.60;;;;;;;9.98;100.00;101377.94;5029010;28;20040;-75
2023/01/02 10:31:06;;;;;;;6.35;3.53;;;;;;;9.94;100.00;101382.56;5027035;28;20079;-74
2023/01/02 10:33:41;;;;;;;6.70;4.03;;;;;;;10.04;100.00;101380.81;5028860;28;20034;-76
2023/01/02 10:36:12;;;;;;;7.70;3.83;;;;;;;10.13;100.00;101374.78;5028038;28;20037;-74
2023/01/02 10:38:38;;;;;;;9.43;4.10;;;;;;;10.02;100.00;101382.72;5027442;28;20041;-75
2023/01/02 10:41:04;;;;;;;8.40;3.63;;;;;;;10.07;100.00;101392.66;5027815;28;20044;-74
2023/01/02 10:43:33;;;;;;;9.45;3.92;;;;;;;10.03;100.00;101389.50;5014001;28;20034;-76
2023/01/02 10:46:00;;;;;;;7.57;3.80;;;;;;;9.94;100.00;101388.59;5023300;28;20041;-74
2023/01/02 10:48:30;;;;;;;8.68;4.32;;;;;;;10.03;100.00;101386.13;5025783;28;20039;-74
2023/01/02 10:51:01;;;;;;;8.07;4.30;;;;;;;10.03;100.00;101386.91;5012557;28;20049;-75
2023/01/02 10:53:32;;;;;;;8.40;4.55;;;;;;;9.98;100.00;101381.31;5026387;28;20116;-75
2023/01/02 10:56:04;;;;;;;7.22;4.38;;;;;;;10.11;100.00;101378.47;5011640;28;20760;-75
2023/01/02 10:58:32;;;;;;;9.00;4.32;;;;;;;10.00;100.00;101378.59;5012377;28;20037;-74
2023/01/02 11:01:18;;;;;;;8.75;4.50;;;;;;;9.95;100.00;101381.63;4993918;28;20037;-75
2023/01/02 11:04:10;;;;;;;9.23;4.18;;;;;;;10.38;100.00;101385.53;5006515;28;20731;-76
2023/01/02 11:06:48;;;;;;;8.70;4.57;;;;;;;9.99;100.00;101382.16;5008350;28;20520;-74
2023/01/02 11:09:27;;;;;;;6.35;3.83;;;;;;;9.91;100.00;101383.66;5027931;28;20048;-75
2023/01/02 11:12:13;;;;;;;7.80;4.15;;;;;;;10.04;100.00;101388.56;5024416;28;20033;-75
2023/01/02 11:14:38;;;;;;;10.65;5.03;;;;;;;9.98;100.00;101394.28;5014140;28;20075;-75
2023/01/02 11:17:21;;;;;;;9.13;4.32;;;;;;;9.99;100.00;101400.31;5026411;28;20406;-75
2023/01/02 11:19:53;;;;;;;9.63;5.13;;;;;;;10.04;100.00;101408.47;5031619;28;20124;-75
2023/01/02 11:22:21;;;;;;;11.23;5.25;;;;;;;10.20;100.00;101397.56;5014183;28;20037;-75
2023/01/02 11:25:16;;;;;;;9.90;4.75;;;;;;;10.35;100.00;101409.16;5010550;28;20049;-76
2023/01/02 11:27:43;;;;;;;11.88;6.05;;;;;;;10.08;100.00;101399.47;5026008;28;20030;-74
2023/01/02 11:30:31;;;;;;;11.40;4.80;;;;;;;10.11;100.00;101401.78;5027671;28;20056;-75
2023/01/02 11:33:22;;;;;;;10.02;5.10;;;;;;;10.25;100.00;101392.78;5028246;28;20025;-75